Flugplatz Buchel Airport

Bericht für ETSB

vom 18.09. um 21:20 UTC

Wind 10 kt aus 80°

Sichtweite 10 km oder mehr

Temperatur 15.0°C

Taupunkt 5.0°C

Luftfeuchtigkeit 51%

Luftdruck 1021 hPa

ETSB 182120Z AUTO 08010KT 9999 // ////// 15/05 Q1021 ///
Keine Prognose (TAF) verfügbar.
Impressum